createdAt,value
2023-03-07T00:02:23.627Z,7.55
2023-03-07T00:07:16.374Z,7.54
2023-03-07T00:09:43.466Z,7.47
2023-03-07T00:12:10.474Z,7.50
2023-03-07T00:14:37.662Z,7.54
2023-03-07T00:17:04.509Z,7.52
2023-03-07T00:19:31.544Z,7.50
2023-03-07T00:21:58.312Z,7.50
2023-03-07T00:24:25.419Z,7.47
2023-03-07T00:26:52.196Z,7.49
2023-03-07T00:29:19.225Z,7.48
2023-03-07T00:31:46.060Z,7.49
2023-03-07T00:34:13.115Z,7.46
2023-03-07T00:36:39.896Z,7.46
2023-03-07T00:39:08.337Z,7.45
2023-03-07T00:41:35.082Z,7.42
2023-03-07T00:44:02.213Z,7.43
2023-03-07T00:46:29.076Z,7.42
2023-03-07T00:48:56.159Z,7.39
2023-03-07T00:51:23.727Z,7.40
2023-03-07T00:53:50.816Z,7.36
2023-03-07T00:56:19.427Z,7.33
2023-03-07T00:58:46.732Z,7.31
2023-03-07T01:01:15.230Z,7.30
2023-03-07T01:03:42.453Z,7.35
2023-03-07T01:06:12.729Z,7.32
2023-03-07T01:08:39.866Z,7.28
2023-03-07T01:11:06.864Z,7.30
2023-03-07T01:13:34.676Z,7.26
2023-03-07T01:16:28.917Z,7.24
2023-03-07T01:18:57.915Z,7.26
2023-03-07T01:21:29.809Z,7.27
2023-03-07T01:23:56.908Z,7.22
2023-03-07T01:26:25.788Z,7.19
2023-03-07T01:28:54.570Z,7.16
2023-03-07T01:31:21.894Z,7.18
2023-03-07T01:33:49.279Z,7.16
2023-03-07T01:36:21.532Z,7.18
2023-03-07T01:38:49.018Z,7.18
2023-03-07T01:41:16.227Z,7.17
2023-03-07T01:43:43.342Z,7.18
2023-03-07T01:46:19.557Z,7.17
2023-03-07T01:48:58.589Z,7.17
2023-03-07T01:51:25.495Z,7.17
2023-03-07T01:53:52.510Z,7.14
2023-03-07T01:56:19.588Z,7.16
2023-03-07T01:58:46.679Z,7.13
2023-03-07T02:01:13.545Z,7.10
2023-03-07T02:03:50.673Z,7.14
2023-03-07T02:06:17.440Z,7.14
2023-03-07T02:08:45.300Z,7.13
2023-03-07T02:11:12.518Z,7.11
2023-03-07T02:13:39.653Z,7.07
2023-03-07T02:16:07.591Z,7.14
2023-03-07T02:18:37.871Z,7.10
2023-03-07T02:21:15.366Z,7.13
2023-03-07T02:24:04.289Z,7.12
2023-03-07T02:26:31.037Z,7.11
2023-03-07T02:28:59.564Z,7.12
2023-03-07T02:31:26.355Z,7.13
2023-03-07T02:33:53.457Z,7.11
2023-03-07T02:36:23.712Z,7.11
2023-03-07T02:38:51.184Z,7.11
2023-03-07T02:41:19.867Z,7.12
2023-03-07T02:43:46.964Z,7.13
2023-03-07T02:46:14.019Z,7.10
2023-03-07T02:48:41.091Z,7.10
2023-03-07T02:51:07.843Z,7.11
2023-03-07T02:53:34.918Z,7.12
2023-03-07T02:56:01.752Z,7.11
2023-03-07T02:58:28.772Z,7.13
2023-03-07T03:00:55.506Z,7.13
2023-03-07T03:03:22.602Z,7.11
2023-03-07T03:05:49.335Z,7.10
2023-03-07T03:08:16.483Z,7.13
2023-03-07T03:10:43.203Z,7.11
2023-03-07T03:13:10.272Z,7.12
2023-03-07T03:15:36.988Z,7.10
2023-03-07T03:18:04.093Z,7.11
2023-03-07T03:20:30.889Z,7.12
2023-03-07T03:22:58.148Z,7.12
2023-03-07T03:25:27.123Z,7.11
2023-03-07T03:27:54.156Z,7.13
2023-03-07T03:30:20.975Z,7.11
2023-03-07T03:32:48.042Z,7.09
2023-03-07T03:35:15.002Z,7.11
2023-03-07T03:37:42.079Z,7.12
2023-03-07T03:40:14.464Z,7.11
2023-03-07T03:42:42.299Z,7.12
2023-03-07T03:45:10.261Z,7.13
2023-03-07T03:47:37.767Z,7.11
2023-03-07T03:50:04.923Z,7.07
2023-03-07T03:52:31.987Z,7.09
2023-03-07T03:54:58.779Z,7.09
2023-03-07T03:57:25.869Z,7.09
2023-03-07T03:59:52.674Z,7.09
2023-03-07T04:02:19.852Z,7.07
2023-03-07T04:04:46.661Z,7.07
2023-03-07T04:07:13.712Z,7.06
2023-03-07T04:09:40.505Z,7.06
2023-03-07T04:12:07.902Z,7.06
2023-03-07T04:14:34.650Z,6.98
2023-03-07T04:17:01.881Z,7.02
2023-03-07T04:19:29.537Z,7.01
2023-03-07T04:21:56.684Z,7.03
2023-03-07T04:24:23.438Z,7.02
2023-03-07T04:26:50.500Z,7.03
2023-03-07T04:29:17.242Z,6.99
2023-03-07T04:31:44.515Z,6.99
2023-03-07T04:34:11.290Z,6.95
2023-03-07T04:36:38.368Z,6.96
2023-03-07T04:39:05.117Z,6.93
2023-03-07T04:41:32.859Z,6.92
2023-03-07T04:43:59.611Z,6.91
2023-03-07T04:46:26.773Z,6.92
2023-03-07T04:48:53.530Z,6.90
2023-03-07T04:51:20.621Z,6.90
2023-03-07T04:53:47.358Z,6.86
2023-03-07T04:56:17.438Z,6.81
2023-03-07T04:58:44.612Z,6.78
2023-03-07T05:01:11.773Z,6.76
2023-03-07T05:03:38.601Z,6.75
2023-03-07T05:06:07.585Z,6.74
2023-03-07T05:08:34.941Z,6.75
2023-03-07T05:11:02.164Z,6.75
2023-03-07T05:13:28.929Z,6.74
2023-03-07T05:15:57.153Z,6.73
2023-03-07T05:18:24.171Z,6.69
2023-03-07T05:20:51.682Z,6.71
2023-03-07T05:23:18.953Z,6.66
2023-03-07T05:25:48.785Z,6.60
2023-03-07T05:28:16.928Z,6.60
2023-03-07T05:30:44.842Z,6.59
2023-03-07T05:33:11.782Z,6.57
2023-03-07T05:35:39.505Z,6.58
2023-03-07T05:38:06.718Z,6.59
2023-03-07T05:40:33.963Z,6.69
2023-03-07T05:43:00.702Z,6.68
2023-03-07T05:45:27.814Z,6.64
2023-03-07T05:47:54.562Z,6.64
2023-03-07T05:50:22.345Z,6.71
2023-03-07T05:52:49.108Z,6.67
2023-03-07T05:55:16.274Z,6.62
2023-03-07T05:57:43.106Z,6.62
2023-03-07T06:00:11.475Z,6.62
2023-03-07T06:02:38.337Z,6.55
2023-03-07T06:05:05.892Z,6.56
2023-03-07T06:07:32.653Z,6.53
2023-03-07T06:09:59.837Z,6.52
2023-03-07T06:12:26.611Z,6.47
2023-03-07T06:14:53.679Z,6.47
2023-03-07T06:17:21.053Z,6.46
2023-03-07T06:19:48.122Z,6.43
2023-03-07T06:22:14.901Z,6.45
2023-03-07T06:24:41.985Z,6.41
2023-03-07T06:27:08.741Z,6.42
2023-03-07T06:29:36.267Z,6.42
2023-03-07T06:32:03.111Z,6.44
2023-03-07T06:34:30.242Z,6.47
2023-03-07T06:36:56.985Z,6.45
2023-03-07T06:39:24.041Z,6.45
2023-03-07T06:41:50.840Z,6.45
2023-03-07T06:44:17.997Z,6.49
2023-03-07T06:46:45.136Z,6.52
2023-03-07T06:49:12.354Z,6.53
2023-03-07T06:51:39.117Z,6.52
2023-03-07T06:54:06.223Z,6.57
2023-03-07T06:56:34.370Z,6.58
2023-03-07T06:59:01.658Z,6.61
2023-03-07T07:01:28.585Z,6.65
2023-03-07T07:03:56.395Z,6.64
2023-03-07T07:06:23.149Z,6.58
2023-03-07T07:08:53.100Z,6.67
2023-03-07T07:11:19.904Z,6.63
2023-03-07T07:13:47.055Z,6.62
2023-03-07T07:16:13.827Z,6.65
2023-03-07T07:18:40.931Z,6.63
2023-03-07T07:21:07.732Z,6.67
2023-03-07T07:23:34.896Z,6.68
2023-03-07T07:26:01.828Z,6.69
2023-03-07T07:28:28.911Z,6.73
2023-03-07T07:30:55.656Z,6.74
2023-03-07T07:33:22.718Z,6.75
2023-03-07T07:35:49.560Z,6.79
2023-03-07T07:38:16.687Z,6.81
2023-03-07T07:40:43.501Z,6.83
2023-03-07T07:43:14.916Z,6.88
2023-03-07T07:45:41.700Z,6.93
2023-03-07T07:48:08.863Z,6.96
2023-03-07T07:50:35.708Z,6.95
2023-03-07T07:53:02.859Z,7.00
2023-03-07T07:55:29.667Z,6.99
2023-03-07T07:57:56.757Z,7.08
2023-03-07T08:00:24.856Z,7.15
2023-03-07T08:02:52.022Z,7.16
2023-03-07T08:05:19.531Z,7.17
2023-03-07T08:07:46.687Z,7.20
2023-03-07T08:10:16.956Z,7.25
2023-03-07T08:12:44.617Z,7.25
2023-03-07T08:15:11.941Z,7.28
2023-03-07T08:17:39.078Z,7.33
2023-03-07T08:20:09.839Z,7.39
2023-03-07T08:22:37.371Z,7.39
2023-03-07T08:25:05.435Z,7.40
2023-03-07T08:27:32.559Z,7.41
2023-03-07T08:30:00.139Z,7.40
2023-03-07T08:32:27.777Z,7.43
2023-03-07T08:34:54.596Z,7.47
2023-03-07T08:37:21.757Z,7.50
2023-03-07T08:39:48.546Z,7.52
2023-03-07T08:42:15.628Z,7.54
2023-03-07T08:44:42.392Z,7.56
2023-03-07T08:47:11.440Z,7.63
2023-03-07T08:49:38.419Z,7.66
2023-03-07T08:52:05.536Z,7.71
2023-03-07T08:54:32.646Z,7.72
2023-03-07T08:57:00.375Z,7.76
2023-03-07T08:59:27.302Z,7.78
2023-03-07T09:01:55.549Z,7.84
2023-03-07T09:04:22.454Z,7.84
2023-03-07T09:06:49.560Z,7.87
2023-03-07T09:09:16.308Z,7.94
2023-03-07T09:11:43.488Z,8.00
2023-03-07T09:14:10.269Z,7.97
2023-03-07T09:16:37.460Z,8.03
2023-03-07T09:19:04.609Z,8.07
2023-03-07T09:21:32.006Z,8.07
2023-03-07T09:23:58.814Z,8.11
2023-03-07T09:26:25.998Z,8.15
2023-03-07T09:28:52.750Z,8.21
2023-03-07T09:31:19.908Z,8.21
2023-03-07T09:33:47.223Z,8.29
2023-03-07T09:36:14.554Z,8.31
2023-03-07T09:38:41.351Z,8.37
2023-03-07T09:41:25.390Z,8.39
2023-03-07T09:44:08.516Z,8.43
2023-03-07T09:47:03.805Z,8.50
2023-03-07T09:49:34.314Z,8.58
2023-03-07T09:52:01.390Z,8.59
2023-03-07T09:54:42.993Z,8.65
2023-03-07T09:57:16.742Z,8.67
2023-03-07T09:59:49.172Z,8.76
2023-03-07T10:02:36.484Z,8.83
2023-03-07T10:05:18.589Z,8.93
2023-03-07T10:07:45.661Z,9.01
2023-03-07T10:10:14.105Z,9.02
2023-03-07T10:12:52.591Z,9.06
2023-03-07T10:15:43.116Z,9.10
2023-03-07T10:18:32.808Z,9.18
2023-03-07T10:21:47.574Z,9.23
2023-03-07T10:24:14.664Z,9.36
2023-03-07T10:26:45.304Z,9.42
2023-03-07T10:29:17.878Z,9.45
2023-03-07T10:32:03.769Z,9.56
2023-03-07T10:34:32.660Z,9.62
2023-03-07T10:37:11.525Z,9.64
2023-03-07T10:39:43.686Z,9.66
2023-03-07T10:42:13.881Z,9.71
2023-03-07T10:44:40.963Z,9.80
2023-03-07T10:47:08.869Z,9.80
2023-03-07T10:49:40.593Z,9.85
2023-03-07T10:52:27.935Z,9.91
2023-03-07T10:54:55.274Z,9.95
2023-03-07T10:57:27.218Z,10.04
2023-03-07T10:59:54.335Z,10.07
2023-03-07T11:02:37.181Z,10.14
2023-03-07T11:05:21.651Z,10.17
2023-03-07T11:07:48.548Z,10.23
2023-03-07T11:10:33.281Z,10.21
2023-03-07T11:13:00.134Z,10.22
2023-03-07T11:15:27.673Z,10.27
2023-03-07T11:17:54.445Z,10.29
2023-03-07T11:20:30.461Z,10.37
2023-03-07T11:23:16.872Z,10.39
2023-03-07T11:25:44.160Z,10.40
2023-03-07T11:28:33.609Z,10.40
2023-03-07T11:31:06.867Z,10.49
2023-03-07T11:33:59.369Z,10.50
2023-03-07T11:36:35.054Z,10.50
2023-03-07T11:39:07.345Z,10.55
2023-03-07T11:41:39.686Z,10.58
2023-03-07T11:44:18.833Z,10.61
2023-03-07T11:47:17.519Z,10.61
2023-03-07T11:50:06.612Z,10.65
2023-03-07T11:52:39.526Z,10.66
2023-03-07T11:55:18.454Z,10.67
2023-03-07T11:58:03.700Z,10.68
2023-03-07T12:01:01.418Z,10.67
2023-03-07T12:03:46.740Z,10.75
2023-03-07T12:06:39.190Z,10.74
2023-03-07T12:09:21.097Z,10.80
2023-03-07T12:11:56.612Z,10.80
2023-03-07T12:14:29.826Z,10.76
2023-03-07T12:16:56.847Z,10.79
2023-03-07T12:19:50.232Z,10.80
2023-03-07T12:22:27.082Z,10.80
2023-03-07T12:25:25.489Z,10.81
2023-03-07T12:28:10.898Z,10.82
2023-03-07T12:30:56.801Z,10.87
2023-03-07T12:33:28.072Z,10.80
2023-03-07T12:35:58.675Z,10.88
2023-03-07T12:38:36.521Z,10.90
2023-03-07T12:41:16.227Z,10.83
2023-03-07T12:43:45.401Z,10.82
2023-03-07T12:46:18.066Z,10.85
2023-03-07T12:48:48.306Z,10.82
2023-03-07T12:51:21.290Z,10.84
2023-03-07T12:53:51.577Z,10.81
2023-03-07T12:56:33.927Z,10.81
2023-03-07T12:59:04.661Z,10.86
2023-03-07T13:01:33.750Z,10.81
2023-03-07T13:04:10.724Z,10.83
2023-03-07T13:06:39.953Z,10.85
2023-03-07T13:09:06.857Z,10.86
2023-03-07T13:11:34.419Z,10.86
2023-03-07T13:14:02.453Z,10.83
2023-03-07T13:16:33.642Z,10.79
2023-03-07T13:19:35.959Z,10.83
2023-03-07T13:22:03.590Z,10.83
2023-03-07T13:24:40.162Z,10.87
2023-03-07T13:27:17.164Z,10.86
2023-03-07T13:30:11.932Z,10.84
2023-03-07T13:32:48.599Z,10.85
2023-03-07T13:35:27.316Z,10.83
2023-03-07T13:38:16.186Z,10.77
2023-03-07T13:40:48.752Z,10.81
2023-03-07T13:43:18.730Z,10.83
2023-03-07T13:45:48.785Z,10.74
2023-03-07T13:48:25.249Z,10.88
2023-03-07T13:50:51.992Z,10.83
2023-03-07T13:53:32.019Z,10.87
2023-03-07T13:56:17.211Z,10.85
2023-03-07T13:58:56.413Z,10.84
2023-03-07T14:01:32.852Z,10.84
2023-03-07T14:04:38.371Z,10.87
2023-03-07T14:07:26.532Z,10.84
2023-03-07T14:09:58.063Z,10.84
2023-03-07T14:12:31.910Z,10.82
2023-03-07T14:15:05.652Z,10.86
2023-03-07T14:17:41.456Z,10.81
2023-03-07T14:20:23.679Z,10.85
2023-03-07T14:23:42.424Z,10.89
2023-03-07T14:26:13.212Z,10.87
2023-03-07T14:28:47.998Z,10.88
2023-03-07T14:31:30.402Z,10.86
2023-03-07T14:33:57.840Z,10.84
2023-03-07T14:36:26.467Z,10.84
2023-03-07T14:38:58.015Z,10.83
2023-03-07T14:41:45.540Z,10.90
2023-03-07T14:44:47.551Z,10.88
2023-03-07T14:47:23.747Z,10.81
2023-03-07T14:49:54.449Z,10.85
2023-03-07T14:52:30.865Z,10.83
2023-03-07T14:55:03.001Z,10.81
2023-03-07T14:57:40.116Z,10.80
2023-03-07T15:00:11.551Z,10.85
2023-03-07T15:03:02.331Z,10.82
2023-03-07T15:05:35.711Z,10.82
2023-03-07T15:08:02.882Z,10.81
2023-03-07T15:10:33.767Z,10.86
2023-03-07T15:13:00.945Z,10.84
2023-03-07T15:15:42.229Z,10.84
2023-03-07T15:18:33.591Z,10.81
2023-03-07T15:21:00.447Z,10.79
2023-03-07T15:23:28.053Z,10.73
2023-03-07T15:25:57.612Z,10.76
2023-03-07T15:28:35.282Z,10.76
2023-03-07T15:31:02.597Z,10.76
2023-03-07T15:33:31.365Z,10.75
2023-03-07T15:36:19.372Z,10.76
2023-03-07T15:38:50.755Z,10.77
2023-03-07T15:41:36.948Z,10.73
2023-03-07T15:44:16.681Z,10.72
2023-03-07T15:46:46.211Z,10.73
2023-03-07T15:49:22.208Z,10.73
2023-03-07T15:51:51.099Z,10.73
2023-03-07T15:54:20.654Z,10.73
2023-03-07T15:56:54.273Z,10.69
2023-03-07T15:59:32.922Z,10.66
2023-03-07T16:02:31.703Z,10.67
2023-03-07T16:05:26.425Z,10.62
2023-03-07T16:07:54.552Z,10.63
2023-03-07T16:10:22.191Z,10.64
2023-03-07T16:12:48.998Z,10.64
2023-03-07T16:15:16.867Z,10.61
2023-03-07T16:17:43.836Z,10.58
2023-03-07T16:20:18.482Z,10.56
2023-03-07T16:22:47.223Z,10.54
2023-03-07T16:25:15.704Z,10.51
2023-03-07T16:27:48.297Z,10.51
2023-03-07T16:30:16.929Z,10.46
2023-03-07T16:32:44.024Z,10.47
2023-03-07T16:35:14.216Z,10.51
2023-03-07T16:37:41.039Z,10.45
2023-03-07T16:40:09.401Z,10.44
2023-03-07T16:42:36.484Z,10.42
2023-03-07T16:45:05.259Z,10.42
2023-03-07T16:47:32.052Z,10.35
2023-03-07T16:49:59.146Z,10.37
2023-03-07T16:52:25.912Z,10.36
2023-03-07T16:54:52.987Z,10.31
2023-03-07T16:57:19.899Z,10.33
2023-03-07T16:59:47.125Z,10.34
2023-03-07T17:02:16.497Z,10.31
2023-03-07T17:04:44.522Z,10.30
2023-03-07T17:07:22.805Z,10.29
2023-03-07T17:09:50.141Z,10.27
2023-03-07T17:12:16.901Z,10.23
2023-03-07T17:14:44.307Z,10.28
2023-03-07T17:17:16.587Z,10.25
2023-03-07T17:19:43.654Z,10.22
2023-03-07T17:22:10.419Z,10.19
2023-03-07T17:24:37.528Z,10.16
2023-03-07T17:27:04.292Z,10.15
2023-03-07T17:29:42.192Z,10.15
2023-03-07T17:32:09.231Z,10.14
2023-03-07T17:34:36.780Z,10.12
2023-03-07T17:37:03.982Z,10.11
2023-03-07T17:39:31.227Z,10.10
2023-03-07T17:41:58.898Z,10.07
2023-03-07T17:44:26.162Z,10.08
2023-03-07T17:46:53.256Z,10.09
2023-03-07T17:49:21.075Z,10.04
2023-03-07T17:51:53.046Z,10.02
2023-03-07T17:54:20.410Z,10.03
2023-03-07T17:56:47.252Z,10.02
2023-03-07T17:59:14.305Z,10.00
2023-03-07T18:01:41.201Z,9.95
2023-03-07T18:04:08.403Z,9.95
2023-03-07T18:06:36.663Z,9.94
2023-03-07T18:09:05.325Z,9.92
2023-03-07T18:11:32.449Z,9.90
2023-03-07T18:13:59.565Z,9.90
2023-03-07T18:16:27.178Z,9.90
2023-03-07T18:19:00.564Z,9.90
2023-03-07T18:21:29.921Z,9.91
2023-03-07T18:23:57.387Z,9.86
2023-03-07T18:26:24.386Z,9.86
2023-03-07T18:28:53.374Z,9.86
2023-03-07T18:31:30.383Z,9.84
2023-03-07T18:33:57.528Z,9.80
2023-03-07T18:36:24.845Z,9.83
2023-03-07T18:38:51.938Z,9.85
2023-03-07T18:41:20.506Z,9.80
2023-03-07T18:43:47.724Z,9.78
2023-03-07T18:46:16.880Z,9.78
2023-03-07T18:48:44.076Z,9.76
2023-03-07T18:51:13.087Z,9.78
2023-03-07T18:53:40.604Z,9.76
2023-03-07T18:56:12.152Z,9.74
2023-03-07T18:58:39.606Z,9.75
2023-03-07T19:01:13.284Z,9.75
2023-03-07T19:03:40.661Z,9.74
2023-03-07T19:06:08.004Z,9.73
2023-03-07T19:08:35.125Z,9.71
2023-03-07T19:11:02.977Z,9.72
2023-03-07T19:13:30.160Z,9.72
2023-03-07T19:16:07.345Z,9.71
2023-03-07T19:18:35.257Z,9.71
2023-03-07T19:21:19.286Z,9.72
2023-03-07T19:23:46.503Z,9.66
2023-03-07T19:26:13.975Z,9.80
2023-03-07T19:28:41.145Z,9.86
2023-03-07T19:31:13.013Z,9.86
2023-03-07T19:33:40.206Z,9.82
2023-03-07T19:36:08.851Z,9.75
2023-03-07T19:38:36.140Z,9.75
2023-03-07T19:41:04.008Z,9.76
2023-03-07T19:43:31.512Z,9.73
2023-03-07T19:45:58.509Z,9.71
2023-03-07T19:48:26.304Z,9.72
2023-03-07T19:50:53.548Z,9.65
2023-03-07T19:53:21.037Z,9.68
2023-03-07T19:55:47.857Z,9.71
2023-03-07T19:58:15.120Z,9.68
2023-03-07T20:00:42.727Z,9.68
2023-03-07T20:03:14.475Z,9.67
2023-03-07T20:05:42.560Z,9.59
2023-03-07T20:08:10.347Z,9.60
2023-03-07T20:10:38.207Z,9.58
2023-03-07T20:13:05.817Z,9.59
2023-03-07T20:15:33.521Z,9.57
2023-03-07T20:18:02.359Z,9.53
2023-03-07T20:20:29.341Z,9.54
2023-03-07T20:22:57.129Z,9.56
2023-03-07T20:25:24.229Z,9.52
2023-03-07T20:27:51.296Z,9.54
2023-03-07T20:30:19.921Z,9.50
2023-03-07T20:32:47.642Z,9.48
2023-03-07T20:35:14.454Z,9.50
2023-03-07T20:37:41.597Z,9.50
2023-03-07T20:40:09.065Z,9.47
2023-03-07T20:42:36.189Z,9.43
2023-03-07T20:45:03.218Z,9.43
2023-03-07T20:47:32.489Z,9.42
2023-03-07T20:49:59.348Z,9.39
2023-03-07T20:52:26.525Z,9.41
2023-03-07T20:54:53.266Z,9.40
2023-03-07T20:57:20.418Z,9.39
2023-03-07T20:59:47.281Z,9.43
2023-03-07T21:02:14.396Z,9.41
2023-03-07T21:04:41.243Z,9.42
2023-03-07T21:07:08.380Z,9.41
2023-03-07T21:09:35.236Z,9.38
2023-03-07T21:12:02.370Z,9.35
2023-03-07T21:14:29.442Z,9.35
2023-03-07T21:16:56.631Z,9.35
2023-03-07T21:19:23.365Z,9.33
2023-03-07T21:21:50.476Z,9.32
2023-03-07T21:24:17.309Z,9.35
2023-03-07T21:26:44.548Z,9.32
2023-03-07T21:29:13.370Z,9.31
2023-03-07T21:31:40.508Z,9.30
2023-03-07T21:34:08.220Z,9.25
2023-03-07T21:36:35.462Z,9.27
2023-03-07T21:39:04.193Z,9.32
2023-03-07T21:41:31.328Z,9.30
2023-03-07T21:43:58.193Z,9.29
2023-03-07T21:46:25.519Z,9.25
2023-03-07T21:48:52.354Z,9.25
2023-03-07T21:51:19.520Z,9.26
2023-03-07T21:53:46.284Z,9.25
2023-03-07T21:56:14.313Z,9.26
2023-03-07T21:58:41.222Z,9.23
2023-03-07T22:01:12.421Z,9.20
2023-03-07T22:03:39.316Z,9.20
2023-03-07T22:06:07.991Z,9.23
2023-03-07T22:08:35.166Z,9.20
2023-03-07T22:11:03.429Z,9.17
2023-03-07T22:13:32.028Z,9.16
2023-03-07T22:15:59.814Z,9.13
2023-03-07T22:18:26.613Z,9.10
2023-03-07T22:20:55.027Z,9.12
2023-03-07T22:23:26.565Z,9.15
2023-03-07T22:25:53.945Z,9.09
2023-03-07T22:28:20.888Z,9.17
2023-03-07T22:30:49.383Z,9.09
2023-03-07T22:33:16.474Z,9.07
2023-03-07T22:35:43.837Z,9.05
2023-03-07T22:38:10.645Z,9.01
2023-03-07T22:40:39.282Z,9.00
2023-03-07T22:43:06.227Z,8.98
2023-03-07T22:45:33.358Z,8.99
2023-03-07T22:48:00.214Z,8.97
2023-03-07T22:50:27.562Z,8.97
2023-03-07T22:52:55.201Z,8.93
2023-03-07T22:55:22.290Z,8.99
2023-03-07T22:57:49.134Z,9.03
2023-03-07T23:00:16.446Z,9.08
2023-03-07T23:02:43.355Z,9.05
2023-03-07T23:05:10.454Z,9.05
2023-03-07T23:07:37.487Z,9.02
2023-03-07T23:10:04.799Z,9.02
2023-03-07T23:12:31.646Z,8.96
2023-03-07T23:14:58.742Z,9.00
2023-03-07T23:17:25.587Z,8.98
2023-03-07T23:19:52.932Z,8.97
2023-03-07T23:22:19.706Z,8.94
2023-03-07T23:24:47.058Z,8.93
2023-03-07T23:27:13.866Z,8.91
2023-03-07T23:29:41.186Z,8.90
2023-03-07T23:32:08.167Z,8.90
2023-03-07T23:34:35.738Z,8.99
2023-03-07T23:37:02.507Z,8.98
2023-03-07T23:39:29.622Z,8.94
2023-03-07T23:41:56.396Z,8.88
2023-03-07T23:44:23.552Z,8.94
2023-03-07T23:46:50.353Z,8.98
2023-03-07T23:49:17.528Z,8.98
2023-03-07T23:51:44.714Z,8.97
2023-03-07T23:54:11.803Z,8.99
2023-03-07T23:56:38.584Z,8.99
2023-03-07T23:59:05.917Z,8.95
